Gällivare Airport

ESNG · Norrbotten, Sweden

METAR history ESNG · Gällivare Airport

Below you see METARs of the last few days. Select a year to browse through older METARs, from the year 2007 onwards.

March 3, 2024

Time Code Weather Temp. Visibility Ceiling Wind METAR/SPECI
07:20
M
1 °C 10 km+ 1,200 ft 320° 320° 3 kt METAR ESNG 030620Z AUTO 32003KT 260V340 9999 BKN012/// OVC015/// 01/M00 Q1018
06:50
M
1 °C 10 km+ 1,400 ft 240° 240° 5 kt METAR ESNG 030550Z AUTO 24005KT 9999 OVC014/// 01/M00 Q1018
06:20
I
1 °C 10 km+ 900 ft 190° 190° 4 kt METAR ESNG 030520Z AUTO 19004KT 160V220 9999 SCT007/// BKN009/// OVC014/// 01/M00 Q1018
05:50
I
0 °C 10 km+ 700 ft 230° 230° 2 kt METAR ESNG 030450Z AUTO 23002KT 9999 BKN007/// BKN009/// OVC011/// 00/M00 Q1018
05:20
I
1 °C 10 km+ 700 ft 210° 210° 4 kt METAR ESNG 030420Z AUTO 21004KT 9999 BKN007/// OVC012/// 01/M00 Q1018
04:50
I
1 °C 10 km+ 700 ft 220° 220° 5 kt METAR ESNG 030350Z AUTO 22005KT 190V250 9999 OVC007/// 01/00 Q1018
04:20
I
1 °C 10 km+ 800 ft 180° 180° 4 kt METAR ESNG 030320Z AUTO 18004KT 9999 OVC008/// 01/M00 Q1017
03:50
I
1 °C 10 km+ 900 ft Var Var 1 kt METAR ESNG 030250Z AUTO VRB01KT 9999 BKN009/// BKN013/// OVC019/// 01/M00 Q1017
03:20
I
1 °C 10 km+ 800 ft 220° 220° 4 kt METAR ESNG 030220Z AUTO 22004KT 160V270 9999 OVC008/// 01/M00 Q1018
02:50
I
1 °C 10 km+ 800 ft 220° 220° 3 kt METAR ESNG 030150Z AUTO 22003KT 160V280 9999 OVC008/// 01/00 Q1018
02:20
I
1 °C 10 km+ 700 ft 180° 180° 4 kt METAR ESNG 030120Z AUTO 18004KT 150V220 9999 OVC007/// 01/M00 Q1018
01:50
I
1 °C 10 km+ 700 ft 180° 180° 5 kt METAR ESNG 030050Z AUTO 18005KT 9999 OVC007/// 01/M00 Q1018
01:20
I
1 °C 10 km+ 800 ft 200° 200° 6 kt METAR ESNG 030020Z AUTO 20006KT 9999 OVC008/// 01/M00 Q1018
00:50
I
1 °C 10 km+ 800 ft 160° 160° 4 kt METAR ESNG 022350Z AUTO 16004KT 9999 OVC008/// 01/M00 Q1018
00:20
I
1 °C 10 km+ 900 ft 130° 130° 4 kt METAR ESNG 022320Z AUTO 13004KT 9999 OVC009/// 01/M00 Q1018

March 2, 2024

Time Code Weather Temp. Visibility Ceiling Wind METAR/SPECI
23:50
I
1 °C 10 km+ 900 ft 110° 110° 4 kt METAR ESNG 022250Z AUTO 11004KT 070V140 9999 OVC009/// 01/M01 Q1018
23:20
I
1 °C 10 km+ 900 ft Var Var 3 kt METAR ESNG 022220Z AUTO VRB03KT 9999 OVC009/// 01/M00 Q1018
22:50
I
1 °C 10 km+ 900 ft 360° 360° 0 kt METAR ESNG 022150Z AUTO 00000KT 9999 OVC009/// 01/M01 Q1018
22:20
M
1 °C 10 km+ 1,100 ft 180° 180° 3 kt METAR ESNG 022120Z AUTO 18003KT 9999 OVC011/// 01/M01 Q1018
21:50
M
1 °C 10 km+ 1,000 ft 180° 180° 6 kt METAR ESNG 022050Z AUTO 18006KT 9999 OVC010/// 01/M01 Q1018
21:20
M
1 °C 10 km+ 1,100 ft 190° 190° 5 kt METAR ESNG 022020Z AUTO 19005KT 9999 OVC011/// 01/M01 Q1017
20:50
M
0 °C 10 km+ 1,200 ft 200° 200° 7 kt METAR ESNG 021950Z AUTO 20007KT 9999 OVC012/// 00/M00 Q1017
20:20
V
-2 °C 10 km+ - 190° 190° 4 kt METAR ESNG 021920Z AUTO 19004KT 9999 FEW013/// M02/M02 Q1017
19:50
V
-2 °C 10 km+ - 200° 200° 1 kt METAR ESNG 021850Z AUTO 20001KT 9999 NCD M02/M03 Q1017
19:20
V
-1 °C 10 km+ - 200° 200° 4 kt METAR ESNG 021820Z AUTO 20004KT 9999 NCD M01/M02 Q1017
18:50
V
0 °C 10 km+ - 170° 170° 4 kt METAR ESNG 021750Z AUTO 17004KT 9999 NCD M00/M01 Q1017
18:20
V
-1 °C 10 km+ - 140° 140° 4 kt METAR ESNG 021720Z AUTO 14004KT 9999 NCD M01/M02 Q1017
17:50
V
-1 °C 10 km+ - Var Var 3 kt METAR ESNG 021650Z AUTO VRB03KT 9999 NCD M01/M02 Q1016
17:20
V
0 °C 10 km+ - 210° 210° 2 kt METAR ESNG 021620Z AUTO 21002KT 9999 NCD 00/M01 Q1016
16:50
V
1 °C 10 km+ - 170° 170° 4 kt METAR ESNG 021550Z AUTO 17004KT 9999 NCD 01/M01 Q1016
16:20
V
2 °C 10 km+ - 190° 190° 5 kt METAR ESNG 021520Z AUTO 19005KT 9999 SCT023/// 02/M00 Q1016
15:50
M
3 °C 10 km+ 2,000 ft 200° 200° 6 kt METAR ESNG 021450Z AUTO 20006KT 9999 OVC020/// 03/M00 Q1016
15:20
M
3 °C 10 km+ 1,700 ft 210° 210° 6 kt METAR ESNG 021420Z AUTO 21006KT 9999 OVC017/// 03/M00 Q1016
14:50
M
3 °C 10 km+ 1,700 ft 210° 210° 3 kt METAR ESNG 021350Z AUTO 21003KT 9999 OVC017/// 03/00 Q1016
14:20
M
2 °C 10 km+ 1,700 ft 250° 250° 4 kt METAR ESNG 021320Z AUTO 25004KT 9999 OVC017/// 02/00 Q1016
13:50
M
3 °C 10 km+ 1,600 ft 220° 220° 6 kt METAR ESNG 021250Z AUTO 22006KT 180V250 9999 OVC016/// 03/00 Q1015
13:20
M
2 °C 10 km+ 1,400 ft 200° 200° 5 kt METAR ESNG 021220Z AUTO 20005KT 160V230 9999 OVC014/// 02/00 Q1015
12:50
M
2 °C 10 km+ 1,200 ft 190° 190° 3 kt METAR ESNG 021150Z AUTO 19003KT 9999 OVC012/// 02/01 Q1015
12:20
M
2 °C 10 km+ 1,000 ft 170° 170° 3 kt METAR ESNG 021120Z AUTO 17003KT 9999 FEW008/// BKN010/// OVC013/// 02/01 Q1015
11:50
I
2 °C 9 km 800 ft 200° 200° 5 kt METAR ESNG 021050Z AUTO 20005KT 9000 BR OVC008/// 02/01 Q1014
11:20
I
2 °C 10 km+ 700 ft 200° 200° 5 kt METAR ESNG 021020Z AUTO 20005KT 9999 OVC007/// 02/00 Q1014
10:50
I
2 °C 10 km+ 800 ft 220° 220° 6 kt METAR ESNG 020950Z AUTO 22006KT 9999 OVC008/// 02/00 Q1014
10:20
I
2 °C 10 km+ 800 ft 230° 230° 5 kt METAR ESNG 020920Z AUTO 23005KT 9999 OVC008/// 02/00 Q1014
09:50
I
2 °C 10 km+ 700 ft 200° 200° 8 kt METAR ESNG 020850Z AUTO 20008KT 9999 OVC007/// 02/00 Q1013
09:20
I
1 °C 10 km+ 700 ft 210° 210° 5 kt METAR ESNG 020820Z AUTO 21005KT 140V250 9999 OVC007/// 01/00 Q1013
08:50
I
1 °C 10 km+ 600 ft 200° 200° 4 kt METAR ESNG 020750Z AUTO 20004KT 140V240 9999 OVC006/// 01/00 Q1013
08:20
I
1 °C 10 km+ 600 ft 190° 190° 3 kt METAR ESNG 020720Z AUTO 19003KT 130V230 9999 OVC006/// 01/00 Q1012
07:50
I
1 °C 10 km+ 500 ft 050° 050° 5 kt METAR ESNG 020650Z AUTO 05005KT 020V100 9999 OVC005/// 01/00 Q1012
07:20
L
1 °C 7 km 400 ft 120° 120° 3 kt METAR ESNG 020620Z AUTO 12003KT 080V190 7000 BR OVC004/// 01/00 Q1012
06:50
I
1 °C 7 km 500 ft Var Var 4 kt METAR ESNG 020550Z AUTO VRB04KT 180V010 7000 BR OVC005/// 01/00 Q1011
06:20
L
0 °C 6 km 400 ft 090° 090° 3 kt METAR ESNG 020520Z AUTO 09003KT 050V130 6000 BR OVC004/// 00/M00 Q1011
05:50
L
0 °C 3.1 km 400 ft 170° 170° 6 kt METAR ESNG 020450Z AUTO 17006KT 3100 BR OVC004/// 00/M01 Q1011
05:20
I
0 °C 10 km+ 600 ft 130° 130° 5 kt METAR ESNG 020420Z AUTO 13005KT 9999 OVC006/// 00/M01 Q1011
04:50
I
0 °C 10 km+ 900 ft 150° 150° 4 kt METAR ESNG 020350Z AUTO 15004KT 120V210 9999 OVC009/// 00/M01 Q1011
04:20
M
0 °C 10 km+ 1,100 ft 160° 160° 7 kt METAR ESNG 020320Z AUTO 16007KT 9999 BKN011/// OVC020/// 00/M01 Q1011
03:50
M
1 °C 10 km+ 1,300 ft 180° 180° 7 kt METAR ESNG 020250Z AUTO 18007KT 9999 BKN013/// OVC021/// 01/M01 Q1011
03:20
M
1 °C 10 km+ 2,400 ft 190° 190° 3 kt METAR ESNG 020220Z AUTO 19003KT 9999 OVC024/// 01/M02 Q1011
02:50
V
0 °C 10 km+ - 110° 110° 2 kt METAR ESNG 020150Z AUTO 11002KT 9999 FEW025/// 00/M01 Q1011
02:20
M
0 °C 10 km+ 1,100 ft 040° 040° 6 kt METAR ESNG 020120Z AUTO 04006KT 360V090 9999 BKN011/// 00/M01 Q1011
01:50
M
0 °C 10 km+ 1,000 ft Var Var 4 kt METAR ESNG 020050Z AUTO VRB04KT 360V360 9999 OVC010/// 00/M01 Q1011
01:20
I
0 °C 5 km 700 ft 160° 160° 7 kt METAR ESNG 020020Z AUTO 16007KT 120V210 5000 -SN OVC007/// 00/M00 Q1010 RESG REUP
00:50
I
1 °C 3.8 km 500 ft 170° 170° 6 kt METAR ESNG 012350Z AUTO 17006KT 130V220 3800 BR BKN005/// OVC007/// 01/M00 Q1010
00:20
I
1 °C 6 km 500 ft 160° 160° 8 kt METAR ESNG 012320Z AUTO 16008KT 140V200 6000 BR OVC005/// 01/M00 Q1010

March 1, 2024

Time Code Weather Temp. Visibility Ceiling Wind METAR/SPECI
23:50
I
1 °C 10 km+ 600 ft 180° 180° 13 kt METAR ESNG 012250Z AUTO 18013KT 9999 OVC006/// 01/00 Q1010
23:20
I
1 °C 6 km 500 ft 180° 180° 11 kt METAR ESNG 012220Z AUTO 18011KT 6000 BR OVC005/// 01/01 Q1009
22:50
L
1 °C 3.4 km 400 ft 190° 190° 13 kt METAR ESNG 012150Z AUTO 19013KT 3400 BR OVC004/// 01/01 Q1009
22:20
I
1 °C 10 km+ 500 ft 180° 180° 10 kt METAR ESNG 012120Z AUTO 18010KT 9999 OVC005/// 01/00 Q1009
21:50
I
1 °C 10 km+ 600 ft 170° 170° 9 kt METAR ESNG 012050Z 17009KT 9999 OVC006 01/01 Q1009
21:20
I
1 °C 10 km+ 500 ft 140° 140° 6 kt METAR ESNG 012020Z 14006KT 9999 -DZ OVC005 01/01 Q1009
20:50
L
1 °C 4.2 km 400 ft 150° 150° 6 kt METAR ESNG 011950Z 15006KT 4200 BR -RASN OVC004 01/01 Q1009
20:20
L
1 °C 4 km 400 ft 130° 130° 5 kt METAR ESNG 011920Z 13005KT 4000 BR OVC004 01/01 Q1008
19:50
L
1 °C 3.7 km 400 ft 170° 170° 5 kt METAR ESNG 011850Z 17005KT 3700 -RASN BR OVC004 01/01 Q1008
19:20
I
1 °C 5 km 500 ft 180° 180° 6 kt METAR ESNG 011820Z 18006KT 5000 BR OVC005 01/01 Q1008
18:50
I
2 °C 10 km+ 600 ft 170° 170° 5 kt METAR ESNG 011750Z AUTO 17005KT 9999 OVC006/// 02/00 Q1008
18:20
I
2 °C 10 km+ 700 ft 170° 170° 4 kt METAR ESNG 011720Z 17004KT 9999 OVC007 02/01 Q1008
17:50
I
2 °C 10 km+ 800 ft 170° 170° 5 kt METAR ESNG 011650Z 17005KT 140V210 9999 OVC008 02/01 Q1007
17:20
I
2 °C 10 km+ 800 ft 180° 180° 5 kt METAR ESNG 011620Z 18005KT 9999 OVC008 02/01 Q1007
16:50
I
2 °C 10 km+ 800 ft 180° 180° 6 kt METAR ESNG 011550Z AUTO 18006KT 9999 OVC008/// 02/01 Q1007
16:20
I
2 °C 10 km+ 900 ft 190° 190° 8 kt METAR ESNG 011520Z 19008KT 9999 BKN009 OVC012 02/01 Q1007
15:50
I
2 °C 10 km+ 900 ft 190° 190° 12 kt METAR ESNG 011450Z 19012KT 9999 BKN009 OVC013 02/01 Q1007
15:20
M
3 °C 10 km+ 1,200 ft 190° 190° 12 kt METAR ESNG 011420Z 19012KT 9999 BKN012 OVC016 03/01 Q1006
14:50
M
3 °C 10 km+ 1,400 ft 200° 200° 9 kt METAR ESNG 011350Z 20009KT 9999 BKN014 OVC019 03/01 Q1006
14:20
M
3 °C 10 km+ 1,600 ft 190° 190° 10 kt METAR ESNG 011320Z 19010KT 9999 BKN016 OVC021 03/00 Q1006
13:50
M
3 °C 10 km+ 1,500 ft 190° 190° 9 kt METAR ESNG 011250Z 19009KT 9999 BKN015 OVC021 03/00 Q1006
13:20
M
3 °C 10 km+ 1,500 ft 200° 200° 6 kt METAR ESNG 011220Z 20006KT 150V230 9999 BKN015 03/00 Q1006
12:50
M
3 °C 10 km+ 1,500 ft 190° 190° 6 kt METAR ESNG 011150Z 19006KT 150V210 9999 BKN015 03/00 Q1005
12:20
M
3 °C 10 km+ 1,500 ft 190° 190° 6 kt METAR ESNG 011120Z AUTO 19006KT 150V220 9999 BKN015/// OVC019/// 03/00 Q1005
11:50
M
3 °C 10 km+ 1,300 ft 200° 200° 7 kt METAR ESNG 011050Z 20007KT 9999 OVC013 03/00 Q1005
11:20
M
2 °C 10 km+ 1,400 ft 190° 190° 8 kt METAR ESNG 011020Z 19008KT 9999 OVC014 02/M00 Q1005
10:50
M
2 °C 10 km+ 1,400 ft 200° 200° 8 kt METAR ESNG 010950Z 20008KT 9999 BKN014 02/M00 Q1005
10:20
M
2 °C 10 km+ 1,400 ft 190° 190° 12 kt METAR ESNG 010920Z 19012KT 9999 OVC014 02/M00 Q1005
09:50
M
2 °C 10 km+ 1,500 ft 190° 190° 12 kt METAR ESNG 010850Z 19012KT 9999 BKN015 02/M00 Q1004
09:20
M
2 °C 10 km+ 1,500 ft 180° 180° 10 kt METAR ESNG 010820Z 18010KT 9999 OVC015 02/M00 Q1004
08:50
M
2 °C 10 km+ 1,700 ft 190° 190° 9 kt METAR ESNG 010750Z 19009KT 9999 FEW013 OVC017 02/00 Q1004
08:20
M
2 °C 10 km+ 1,600 ft 190° 190° 11 kt METAR ESNG 010720Z 19011KT 9999 SCT010 OVC016 02/00 Q1004
07:20
M
1 °C 10 km+ 1,000 ft 180° 180° 8 kt METAR ESNG 010620Z 18008KT 9999 BKN010 OVC015 01/M00 Q1003
06:50
M
1 °C 10 km+ 1,700 ft 190° 190° 10 kt METAR ESNG 010550Z 19010KT 9999 SCT010 OVC017 01/M00 Q1003